»·PEaware :: N629J KAVX-KSBA

N629J :: KAVX-KSBA

FLIGHT INFORMATION

Flight Status: Arrived
Operator: Privately registered:
United States
More flights under this callsign
Pilot: Thiago S. (19132)
Aircraft: BEECH AIRCRAFT A90-E90 KING AIR
(BE9L)
More flights by this aircraft type
Origin: KAVX Catalina
United States
Destination: KSBA Santa Barbara Mun
United States
More flights between these airports :: More routes between these airports
Route: +KWANG
File this flight plan on PilotEdge
Remarks:
Altitude:
(Current/Filed)
8,000ft
Speed:
(Current/Filed)
210kts
Departed: 21-Feb-19 01:11 PM
Arrived: 21-Feb-19 01:46 PM
Distance/Time
Traveled:
74nm/0:35
Distance/Time
To Go:
Arrived

Flight Plot

Page will automatically refresh every two minutes.

Flight plan parsing failed; only flown route is shown


Map Options




Map Legend


Flown Route
Filed Route
Departure Airport
Arrival Airport
Navaid (VOR, NDB)
Fix

Horizontal Profiles

Position Reports

Time Latitude Longitude Heading Altitude Ground
Speed
21-Feb-19 12:54 33.403777 -118.414837 260 1607ft 0kts
21-Feb-19 12:55 33.403777 -118.414837 260 1607ft 0kts
21-Feb-19 12:56 33.403777 -118.414837 260 1607ft 0kts
21-Feb-19 12:57 33.403777 -118.414837 260 1607ft 0kts
21-Feb-19 12:58 33.403777 -118.414837 260 1607ft 0kts
21-Feb-19 12:59 33.403777 -118.414837 260 1607ft 0kts
21-Feb-19 13:00 33.403777 -118.414837 260 1607ft 0kts
21-Feb-19 13:01 33.403775 -118.414857 260 1607ft 1kts
21-Feb-19 13:02 33.403773 -118.414866 260 1607ft 0kts
21-Feb-19 13:03 33.403773 -118.414870 260 1607ft 0kts
21-Feb-19 13:04 33.403772 -118.414874 260 1607ft 0kts
21-Feb-19 13:05 33.403772 -118.414878 260 1607ft 0kts
21-Feb-19 13:06 33.404104 -118.414987 358 1607ft 8kts
21-Feb-19 13:07 33.405917 -118.413517 57 1607ft 5kts
21-Feb-19 13:08 33.407094 -118.411538 55 1607ft 3kts
21-Feb-19 13:09 33.407239 -118.411991 234 1607ft 0kts
21-Feb-19 13:10 33.396336 -118.430501 241 2169ft 128kts
21-Feb-19 13:11 33.392772 -118.477197 282 2472ft 171kts
21-Feb-19 13:12 33.423042 -118.512379 27 2399ft 204kts
21-Feb-19 13:13 33.455850 -118.516033 269 2447ft 189kts
21-Feb-19 13:14 33.479021 -118.567967 328 2719ft 183kts
21-Feb-19 13:15 33.521793 -118.604446 317 2559ft 189kts
21-Feb-19 13:16 33.552342 -118.653648 290 2561ft 186kts
21-Feb-19 13:17 33.573850 -118.704292 301 3589ft 155kts
21-Feb-19 13:18 33.600825 -118.745908 309 4814ft 159kts
21-Feb-19 13:19 33.630264 -118.784438 309 6004ft 154kts
21-Feb-19 13:20 33.658349 -118.823001 307 7201ft 151kts
21-Feb-19 13:21 33.684933 -118.862359 306 8129ft 162kts
21-Feb-19 13:22 33.715645 -118.908349 306 8152ft 182kts
21-Feb-19 13:23 33.747356 -118.956340 306 8151ft 184kts
21-Feb-19 13:24 33.786838 -118.995820 319 8149ft 186kts
21-Feb-19 13:25 33.827947 -119.033474 319 8147ft 185kts
21-Feb-19 13:26 33.869268 -119.070872 321 8144ft 185kts
21-Feb-19 13:27 33.908836 -119.109573 315 8134ft 183kts
21-Feb-19 13:28 33.947146 -119.150228 317 8135ft 182kts
21-Feb-19 13:29 33.985814 -119.189669 314 8133ft 181kts
21-Feb-19 13:30 34.024191 -119.230004 317 8140ft 188kts
21-Feb-19 13:31 34.065085 -119.270999 317 8131ft 193kts
21-Feb-19 13:32 34.106650 -119.312392 317 8121ft 193kts
21-Feb-19 13:33 34.148924 -119.354538 318 7521ft 204kts
21-Feb-19 13:34 34.193215 -119.398696 318 6133ft 207kts
21-Feb-19 13:35 34.237243 -119.442862 319 4759ft 204kts
21-Feb-19 13:36 34.279296 -119.484607 319 4113ft 179kts
21-Feb-19 13:37 34.308188 -119.527700 292 3848ft 172kts
21-Feb-19 13:38 34.329694 -119.582445 296 3014ft 180kts
21-Feb-19 13:39 34.351905 -119.634306 296 2610ft 169kts
21-Feb-19 13:40 34.373024 -119.684425 294 2252ft 164kts
21-Feb-19 13:41 34.390843 -119.730079 296 1893ft 137kts
21-Feb-19 13:42 34.406106 -119.765795 296 1145ft 110kts
21-Feb-19 13:43 34.419832 -119.798750 299 820ft 108kts
21-Feb-19 13:44 34.427967 -119.831028 269 81ft 94kts
21-Feb-19 13:45 34.427820 -119.846568 51 15ft 7kts
21-Feb-19 13:46 34.428210 -119.845759 58 15ft 1kts
21-Feb-19 13:47 34.430040 -119.842152 66 15ft 19kts
21-Feb-19 13:48 34.431561 -119.837325 34 15ft 7kts
21-Feb-19 13:49 34.432247 -119.837544 149 15ft 1kts
21-Feb-19 13:50 34.432190 -119.837522 160 15ft 0kts
21-Feb-19 13:51 32.731822 -117.175708 11 15ft 0kts

Navigation Log

Ident Type
Flight plan parsing failed, navigation log unavailable